METAR Data
IDs: Format: Raw Decoded Include TAF

Data at: 1739 UTC 24 Aug 2019

PASK 241656Z AUTO 22005KT 10SM CLR 08/06 RMK AO2 SLPNO T00830056 $
PASK 241556Z AUTO 00000KT 10SM CLR 06/04 A2983 RMK AO2 SLP096 T00610039
PASK 241456Z AUTO 00000KT 10SM CLR 06/04 A2983 RMK AO2 SLP096 T00610044 53003
PASK 241356Z AUTO 00000KT 10SM CLR 07/03 A2982 RMK AO2 SLP095 T00720028
PASK 241256Z AUTO 31003KT 10SM CLR 07/03 A2982 RMK AO2 SLP093 T00720033
PASK 241156Z AUTO 31005KT 10SM CLR 07/03 A2982 RMK AO2 SLP093 6//// 7//// T00670028 10117 20061 53007
PASK 241056Z AUTO 00000KT 10SM CLR 08/03 A2981 RMK AO2 SLP090 T00830028
PASK 240956Z AUTO 03005KT 10SM CLR 10/02 A2980 RMK AO2 SLP088 T01000017
PASK 240856Z AUTO 02006KT 10SM CLR 09/02 A2979 RMK AO2 SLP085 6//// T00940022 401500061
PASK 240756Z AUTO 02007KT 10SM CLR 09/02 A2979 RMK AO2 SLP083 T00940017
PASK 240656Z AUTO 01006KT 10SM CLR 11/01 RMK AO2 SLPNO T01110006 $
PASK 240556Z AUTO 01009KT 10SM CLR 12/01 A2976 RMK AO2 SLP074 6//// T01170011 10150 20117 53006
PASK 240456Z AUTO 02008KT 10SM CLR 13/01 A2975 RMK AO2 SLP072 T01330006
PASK 240356Z AUTO 36008KT 10SM CLR 14/M01 A2975 RMK AO2 SLP070 T01441006
PASK 240256Z AUTO 36006KT 10SM CLR 14/00 A2974 RMK AO2 SLP068 6//// T01440000
PASK 240156Z AUTO 02010KT 10SM CLR 14/00 A2974 RMK AO2 SLP067 T01440000
PASK 240056Z AUTO 02011KT 10SM CLR 14/01 RMK AO2 SLPNO T01440006 $
PASK 232356Z AUTO 36011KT 10SM CLR 14/02 A2974 RMK AO2 SLP066 6//// T01440017 10144 20100 51005
PASK 232256Z AUTO 35011G16KT 10SM CLR 14/02 A2973 RMK AO2 SLP065 T01390017
PASK 232156Z AUTO 04009G16KT 10SM CLR 13/02 A2973 RMK AO2 SLP063 T01280022
PASK 232056Z AUTO 32008KT 10SM CLR 13/05 A2972 RMK AO2 SLP061 T01330050 53004
PASK 231956Z AUTO 02010KT 10SM SCT039 12/04 A2972 RMK AO2 SLP059 T01220044
PASK 231856Z AUTO 32004KT 10SM CLR 12/05 A2971 RMK AO2 SLP057 T01170050
PASK 231756Z AUTO 30003KT 10SM CLR 10/05 A2971 RMK AO2 SLP057 6//// T01000050 10100 20061 53002
PASK 231656Z AUTO 28007KT 10SM SCT080 08/04 A2971 RMK AO2 SLP056 T00830044
PASK 231556Z AUTO 29003KT 10SM CLR 07/05 A2971 RMK AO2 SLP056 T00720050
PASK 231456Z AUTO 35003KT 10SM FEW048 07/04 A2971 RMK AO2 SLP056 T00720044 50005
PASK 231356Z AUTO 30003KT 10SM OVC075 08/05 A2971 RMK AO2 SLP056 T00830050
PASK 231256Z AUTO 02004KT 10SM OVC070 09/05 A2970 RMK AO2 SLP054 T00890050
PASK 231156Z AUTO 34003KT 10SM SCT070 OVC100 09/06 A2969 RMK AO2 SLP051 6//// 7//// T00890056 10122 20078 58001
PASK 231056Z AUTO 04003KT 10SM BKN100 OVC110 09/06 A2969 RMK AO2 SLP052 T00940056
PASK 230956Z AUTO 10SM CLR 08/06 A2969 RMK AO2 SLP051 T00830061
PASK 230856Z AUTO 32006KT 10SM CLR 09/06 A2969 RMK AO2 SLP051 6//// T00890061 401560072 53002
PASK 230756Z AUTO 29003KT 10SM CLR 10/07 A2969 RMK AO2 SLP049 T01000067
PASK 230656Z AUTO 27003KT 8SM CLR 11/06 A2969 RMK AO2 SLP049 T01110061
PASK 230556Z AUTO 36005KT 10SM CLR 12/05 A2969 RMK AO2 SLP049 T01220050 10156 20122 55003